Time;durP1;ratioP1;P1;durP2;ratioP2;P2;SDS_P1;SDS_P2;PMS_P1;PMS_P2;Temp;Humidity;BMP_temperature;BMP_pressure;BME280_temperature;BME280_humidity;BME280_pressure;Samples;Min_cycle;Max_cycle;Signal;HPM_P1;HPM_P2
2021/12/22 00:02:25;;;;;;;19.33;7.60;;;;;;;-5.76;100.00;99622.75;4316476;33;20087;-72
2021/12/22 00:04:54;;;;;;;23.65;7.75;;;;;;;-5.48;100.00;99678.97;4317201;33;20138;-72
2021/12/22 00:07:20;;;;;;;20.85;8.18;;;;;;;-5.59;100.00;99663.31;4316038;33;20339;-72
2021/12/22 00:09:47;;;;;;;26.00;7.78;;;;;;;-5.62;100.00;99666.19;4315670;33;20097;-71
2021/12/22 00:12:13;;;;;;;20.33;8.27;;;;;;;-6.03;100.00;99605.78;4317199;33;20041;-71
2021/12/22 00:14:40;;;;;;;35.80;10.00;;;;;;;-5.82;100.00;99645.09;4315701;33;20058;-71
2021/12/22 00:17:06;;;;;;;22.80;8.30;;;;;;;-5.63;100.00;99681.13;4317195;33;20072;-71
2021/12/22 00:19:33;;;;;;;31.83;9.15;;;;;;;-5.68;100.00;99678.88;4315896;33;20033;-71
2021/12/22 00:22:00;;;;;;;22.87;8.75;;;;;;;-5.67;100.00;99690.19;4315471;33;20037;-71
2021/12/22 00:24:26;;;;;;;31.62;7.93;;;;;;;-5.79;100.00;99680.72;4316972;33;20072;-71
2021/12/22 00:26:53;;;;;;;27.35;9.05;;;;;;;-5.72;100.00;99677.47;4315485;33;20037;-71
2021/12/22 00:29:21;;;;;;;27.87;8.68;;;;;;;-5.72;100.00;99677.47;4316834;33;20040;-72
2021/12/22 00:31:58;;;;;;;25.12;9.10;;;;;;;-6.02;100.00;99655.47;4302227;33;20062;-71
2021/12/22 00:34:27;;;;;;;18.33;7.25;;;;;;;-5.92;100.00;99671.28;4316906;33;20112;-72
2021/12/22 00:36:53;;;;;;;31.45;8.90;;;;;;;-6.24;100.00;99645.97;4315650;33;20062;-72
2021/12/22 00:39:20;;;;;;;30.50;9.45;;;;;;;-6.12;100.00;99657.22;4303592;33;20037;-72
2021/12/22 00:41:49;;;;;;;20.20;8.07;;;;;;;-6.01;100.00;99672.06;4316847;33;20036;-72
2021/12/22 00:44:16;;;;;;;22.87;8.30;;;;;;;-5.89;100.00;99702.50;4316767;33;20033;-72
2021/12/22 00:46:42;;;;;;;22.67;9.00;;;;;;;-5.88;100.00;99698.91;4316751;33;20041;-71
2021/12/22 00:49:09;;;;;;;24.25;7.93;;;;;;;-6.17;100.00;99661.16;4316673;33;20198;-72
2021/12/22 00:51:36;;;;;;;24.25;9.15;;;;;;;-6.38;100.00;99638.41;4316623;33;20037;-72
2021/12/22 00:54:02;;;;;;;27.48;8.07;;;;;;;-5.97;100.00;99704.94;4315133;33;20345;-72
2021/12/22 00:56:29;;;;;;;41.30;9.43;;;;;;;-5.97;100.00;99704.94;4315903;33;20426;-71
2021/12/22 00:58:55;;;;;;;27.98;8.95;;;;;;;-5.94;100.00;99704.66;4303200;33;20398;-72
2021/12/22 01:01:22;;;;;;;28.08;8.45;;;;;;;-6.00;100.00;99709.59;4316557;33;20389;-72
2021/12/22 01:03:49;;;;;;;19.45;7.60;;;;;;;-6.11;100.00;99697.38;4316662;33;20041;-72
2021/12/22 01:06:15;;;;;;;19.87;8.38;;;;;;;-6.06;100.00;99700.47;4316435;33;20045;-72
2021/12/22 01:08:48;;;;;;;30.77;9.55;;;;;;;-6.13;100.00;99696.66;4316405;33;20354;-72
2021/12/22 01:11:15;;;;;;;16.92;7.32;;;;;;;-6.11;100.00;99700.00;4316274;33;20453;-72
2021/12/22 01:13:42;;;;;;;33.70;8.45;;;;;;;-6.10;100.00;99707.72;4315947;33;20037;-72
2021/12/22 01:16:08;;;;;;;20.88;7.93;;;;;;;-6.09;100.00;99705.97;4303260;33;20033;-71
2021/12/22 01:18:36;;;;;;;23.77;7.57;;;;;;;-6.07;100.00;99706.66;4316325;33;20131;-72
2021/12/22 01:23:35;;;;;;;22.77;8.27;;;;;;;-6.10;100.00;99702.50;4316118;33;20379;-71
2021/12/22 01:26:04;;;;;;;19.40;6.55;;;;;;;-6.09;100.00;99705.97;4315108;33;20036;-71
2021/12/22 01:28:31;;;;;;;18.27;7.70;;;;;;;-6.04;100.00;99719.53;4303339;33;20046;-71
2021/12/22 01:31:02;;;;;;;28.58;7.85;;;;;;;-6.14;100.00;99708.97;4316053;33;20037;-71
2021/12/22 01:33:29;;;;;;;22.75;7.90;;;;;;;-6.59;100.00;99649.69;4315868;33;20055;-70
2021/12/22 01:35:55;;;;;;;19.27;7.05;;;;;;;-6.23;100.00;99714.94;4315930;33;20033;-71
2021/12/22 01:38:22;;;;;;;19.73;7.40;;;;;;;-6.23;100.00;99715.78;4315951;33;20069;-71
2021/12/22 01:40:50;;;;;;;18.40;7.20;;;;;;;-6.24;100.00;99711.50;4316004;33;20052;-71
2021/12/22 01:43:17;;;;;;;18.27;7.40;;;;;;;-6.21;100.00;99724.38;4315864;33;20041;-70
2021/12/22 01:49:11;;;;;;;15.93;7.15;;;;;;;-6.34;100.00;99707.12;4315923;33;20001;-70
2021/12/22 01:51:44;;;;;;;17.25;6.07;;;;;;;-6.23;100.00;99721.00;4314613;33;20016;-71
2021/12/22 01:54:33;;;;;;;17.50;6.75;;;;;;;-6.22;100.00;99727.13;4315932;33;20066;-70
2021/12/22 01:57:02;;;;;;;20.02;7.10;;;;;;;-6.23;100.00;99725.44;4316050;33;20038;-71
2021/12/22 01:59:29;;;;;;;19.40;7.60;;;;;;;-6.33;100.00;99701.75;4316205;33;20432;-70
2021/12/22 02:01:57;;;;;;;24.90;7.95;;;;;;;-6.26;100.00;99726.50;4315904;33;20425;-70
2021/12/22 02:04:24;;;;;;;23.60;7.37;;;;;;;-6.31;100.00;99718.19;4314885;33;20036;-70
2021/12/22 02:06:51;;;;;;;21.12;7.53;;;;;;;-6.32;100.00;99727.00;4315705;33;20032;-70
2021/12/22 02:12:11;;;;;;;15.45;7.20;;;;;;;-6.65;100.00;99676.38;4315628;33;20035;-70
2021/12/22 02:14:40;;;;;;;17.90;7.07;;;;;;;-6.39;100.00;99720.59;4314721;33;20354;-70
2021/12/22 02:17:09;;;;;;;19.15;7.70;;;;;;;-6.42;100.00;99718.22;4315575;33;20041;-71
2021/12/22 02:19:44;;;;;;;23.90;7.25;;;;;;;-6.44;100.00;99717.53;4315434;33;20072;-70
2021/12/22 02:22:14;;;;;;;21.85;8.82;;;;;;;-6.45;100.00;99721.09;4315371;33;20013;-71
2021/12/22 02:24:55;;;;;;;19.00;7.05;;;;;;;-6.49;100.00;99719.66;4313592;33;20047;-70
2021/12/22 02:30:16;;;;;;;20.37;6.95;;;;;;;-6.51;100.00;99724.19;4315575;33;20009;-70
2021/12/22 02:35:10;;;;;;;17.02;6.57;;;;;;;-6.70;100.00;99696.87;4315279;33;20367;-71
2021/12/22 02:37:43;;;;;;;17.37;7.35;;;;;;;-6.58;100.00;99711.59;4315387;33;20076;-70
2021/12/22 02:40:15;;;;;;;24.70;7.40;;;;;;;-6.70;100.00;99696.87;4314329;33;20013;-70
2021/12/22 02:42:45;;;;;;;25.48;7.25;;;;;;;-6.91;100.00;99662.72;4315379;33;20071;-70
2021/12/22 02:45:16;;;;;;;22.62;7.68;;;;;;;-6.85;100.00;99682.38;4315338;33;20398;-70
2021/12/22 02:47:43;;;;;;;25.52;7.40;;;;;;;-6.88;100.00;99682.59;4302348;33;20054;-70
2021/12/22 02:50:11;;;;;;;18.35;7.28;;;;;;;-6.70;100.00;99715.22;4315699;33;20094;-70
2021/12/22 02:52:48;;;;;;;21.80;7.70;;;;;;;-6.67;100.00;99717.59;4315352;33;20059;-70
2021/12/22 02:55:15;;;;;;;19.73;6.97;;;;;;;-6.98;100.00;99672.03;4302289;33;20100;-72
2021/12/22 02:57:47;;;;;;;19.12;7.12;;;;;;;-6.71;100.00;99718.78;4315722;33;20386;-72
2021/12/22 03:05:24;;;;;;;24.92;7.70;;;;;;;-6.79;100.00;99715.94;4315137;33;20032;-71
2021/12/22 03:07:51;;;;;;;19.90;7.22;;;;;;;-6.84;100.00;99708.44;4315112;33;20041;-71
2021/12/22 03:10:19;;;;;;;24.35;7.43;;;;;;;-6.90;100.00;99708.09;4314407;33;20037;-71
2021/12/22 03:12:52;;;;;;;25.95;8.18;;;;;;;-6.83;100.00;99719.72;4315443;33;20366;-70
2021/12/22 03:15:20;;;;;;;24.70;8.18;;;;;;;-6.82;100.00;99718.78;4313788;33;20025;-71
2021/12/22 03:17:47;;;;;;;22.95;8.65;;;;;;;-7.13;100.00;99668.84;4302311;33;20440;-71
2021/12/22 03:20:15;;;;;;;27.55;8.18;;;;;;;-6.87;100.00;99726.19;4315427;33;20037;-71
2021/12/22 03:22:44;;;;;;;21.33;8.50;;;;;;;-6.95;100.00;99713.69;4314097;33;20049;-71
2021/12/22 03:25:16;;;;;;;31.58;9.63;;;;;;;-7.15;100.00;99686.44;4314252;33;20045;-71
2021/12/22 03:27:49;;;;;;;25.83;7.90;;;;;;;-6.87;100.00;99734.87;4315176;33;20005;-71
2021/12/22 03:30:21;;;;;;;27.60;8.93;;;;;;;-7.15;100.00;99691.69;4315094;33;20034;-71
2021/12/22 03:32:48;;;;;;;25.45;9.82;;;;;;;-7.18;100.00;99686.69;4314183;33;20066;-71
2021/12/22 03:35:20;;;;;;;25.17;9.10;;;;;;;-6.88;100.00;99734.97;4315586;33;20086;-71
2021/12/22 03:37:57;;;;;;;15.85;6.68;;;;;;;-6.85;100.00;99737.38;4318100;33;20470;-70
2021/12/22 03:40:26;;;;;;;24.83;8.35;;;;;;;-6.94;100.00;99736.28;4318089;33;20413;-71
2021/12/22 03:42:52;;;;;;;33.33;9.45;;;;;;;-6.89;100.00;99743.78;4318043;33;20086;-73
2021/12/22 03:45:19;;;;;;;21.85;8.20;;;;;;;-6.97;100.00;99745.22;4304450;33;20040;-71
2021/12/22 03:47:47;;;;;;;16.12;7.22;;;;;;;-6.93;100.00;99754.50;4316573;33;20233;-71
2021/12/22 03:50:15;;;;;;;31.87;9.02;;;;;;;-7.05;100.00;99744.16;4317663;33;20058;-71
2021/12/22 03:52:41;;;;;;;26.45;8.68;;;;;;;-7.20;100.00;99709.53;4316292;33;20437;-71
2021/12/22 03:55:09;;;;;;;23.95;9.23;;;;;;;-6.94;100.00;99758.09;4317771;33;20332;-70
2021/12/22 03:57:35;;;;;;;20.50;8.00;;;;;;;-6.94;100.00;99755.47;4316593;33;20466;-70
2021/12/22 04:00:05;;;;;;;16.87;7.90;;;;;;;-7.26;100.00;99710.81;4317822;33;20052;-71
2021/12/22 04:02:32;;;;;;;22.20;8.52;;;;;;;-7.27;100.00;99713.56;4316418;33;20366;-71
2021/12/22 04:04:58;;;;;;;27.52;8.07;;;;;;;-7.04;100.00;99756.28;4316582;33;20103;-71
2021/12/22 04:07:25;;;;;;;22.27;8.02;;;;;;;-7.02;100.00;99759.63;4317359;33;20044;-71
2021/12/22 04:09:53;;;;;;;20.85;8.20;;;;;;;-7.03;100.00;99763.22;4316280;33;20062;-70
2021/12/22 04:12:19;;;;;;;19.05;7.57;;;;;;;-7.24;100.00;99732.50;4317413;33;20477;-71
2021/12/22 04:14:46;;;;;;;20.23;8.25;;;;;;;-7.07;100.00;99767.81;4317639;33;20403;-71
2021/12/22 04:17:12;;;;;;;22.75;8.13;;;;;;;-7.07;100.00;99765.19;4317278;33;20488;-71
2021/12/22 04:19:39;;;;;;;25.83;8.82;;;;;;;-7.14;100.00;99745.69;4317201;33;20041;-71
2021/12/22 04:22:06;;;;;;;25.50;8.18;;;;;;;-7.27;100.00;99724.03;4317294;33;20049;-71
2021/12/22 04:24:33;;;;;;;28.40;7.62;;;;;;;-7.38;100.00;99702.16;4316822;33;20044;-71
2021/12/22 04:27:00;;;;;;;30.88;8.45;;;;;;;-7.04;100.00;99757.13;4316969;33;20075;-71
2021/12/22 04:29:26;;;;;;;26.90;8.38;;;;;;;-7.03;100.00;99748.31;4303943;33;20066;-71
2021/12/22 04:31:53;;;;;;;24.08;8.63;;;;;;;-7.09;100.00;99738.31;4316977;33;20080;-70
2021/12/22 04:34:19;;;;;;;26.25;8.70;;;;;;;-6.95;100.00;99761.62;4316939;33;20081;-71
2021/12/22 04:36:46;;;;;;;23.50;8.73;;;;;;;-7.27;100.00;99703.09;4317192;33;20135;-71
2021/12/22 04:39:12;;;;;;;30.55;9.43;;;;;;;-7.35;100.00;99696.69;4316842;33;20041;-71
2021/12/22 04:41:39;;;;;;;20.50;8.40;;;;;;;-6.98;100.00;99755.81;4317071;33;20423;-71
2021/12/22 04:44:06;;;;;;;21.80;8.90;;;;;;;-7.02;100.00;99760.47;4316834;33;20053;-71
2021/12/22 04:46:33;;;;;;;23.05;8.48;;;;;;;-7.32;100.00;99704.28;4316329;33;20048;-71
2021/12/22 04:48:59;;;;;;;37.83;9.10;;;;;;;-7.12;100.00;99749.03;4315655;33;20112;-71
2021/12/22 04:51:29;;;;;;;19.95;7.87;;;;;;;-7.04;100.00;99764.97;4316750;33;20036;-71
2021/12/22 04:56:31;;;;;;;26.77;8.98;;;;;;;-7.33;100.00;99713.09;4316619;33;20426;-71
2021/12/22 04:58:58;;;;;;;29.63;8.88;;;;;;;-7.14;100.00;99745.69;4316681;33;20056;-71
2021/12/22 05:01:25;;;;;;;16.80;7.90;;;;;;;-7.07;100.00;99757.34;4316526;33;20443;-71
2021/12/22 05:06:24;;;;;;;27.02;8.52;;;;;;;-7.10;100.00;99765.44;4316403;33;20039;-72
2021/12/22 05:08:51;;;;;;;28.27;9.70;;;;;;;-7.43;100.00;99717.38;4316245;33;20066;-71
2021/12/22 05:11:19;;;;;;;23.40;7.90;;;;;;;-7.16;100.00;99769.38;4303203;33;20366;-71
2021/12/22 05:13:45;;;;;;;25.12;8.52;;;;;;;-7.36;100.00;99731.63;4316394;33;20052;-72
2021/12/22 05:16:17;;;;;;;21.37;8.73;;;;;;;-7.17;100.00;99756.41;4316274;33;20044;-72
2021/12/22 05:21:21;;;;;;;31.90;7.72;;;;;;;-7.51;100.00;99707.50;4316222;33;20461;-71
2021/12/22 05:23:49;;;;;;;29.77;8.32;;;;;;;-7.48;100.00;99716.91;4316166;33;20088;-71
2021/12/22 05:26:16;;;;;;;24.10;9.20;;;;;;;-7.16;100.00;99773.78;4314958;33;20052;-70
2021/12/22 05:28:42;;;;;;;27.33;9.13;;;;;;;-7.20;100.00;99774.97;4316200;33;20387;-70
2021/12/22 05:31:09;;;;;;;24.85;9.82;;;;;;;-7.24;100.00;99770.91;4316106;33;20074;-70
2021/12/22 05:33:35;;;;;;;22.75;8.63;;;;;;;-7.54;100.00;99728.66;4316001;33;20049;-70
2021/12/22 05:36:08;;;;;;;37.70;9.90;;;;;;;-7.36;100.00;99770.88;4315872;33;20051;-70
2021/12/22 05:38:35;;;;;;;29.98;10.52;;;;;;;-7.27;100.00;99782.44;4316160;33;20427;-70
2021/12/22 05:41:02;;;;;;;19.98;9.63;;;;;;;-7.33;100.00;99783.75;4314780;33;20052;-70
2021/12/22 05:43:28;;;;;;;21.67;8.00;;;;;;;-7.32;100.00;99780.19;4315809;33;20074;-71
2021/12/22 05:45:55;;;;;;;29.02;9.35;;;;;;;-7.35;100.00;99785.66;4314890;33;20076;-71
2021/12/22 05:48:23;;;;;;;26.40;9.43;;;;;;;-7.36;100.00;99776.12;4315880;33;20164;-72
2021/12/22 05:50:52;;;;;;;25.85;9.20;;;;;;;-7.34;100.00;99787.31;4314523;33;20070;-72
2021/12/22 05:53:19;;;;;;;20.98;8.82;;;;;;;-7.38;100.00;99785.88;4315406;33;20049;-71
2021/12/22 05:55:45;;;;;;;34.13;8.52;;;;;;;-7.72;100.00;99736.13;4315556;33;20048;-71
2021/12/22 05:58:12;;;;;;;25.05;9.38;;;;;;;-7.54;100.00;99772.28;4315938;33;20194;-71
2021/12/22 06:00:39;;;;;;;24.77;9.20;;;;;;;-7.49;100.00;99778.00;4315697;33;20078;-71
2021/12/22 06:03:05;;;;;;;30.95;9.90;;;;;;;-7.39;100.00;99789.44;4315442;33;20469;-72
2021/12/22 06:05:32;;;;;;;32.15;9.90;;;;;;;-7.67;100.00;99747.06;4302603;33;20049;-71
2021/12/22 06:07:58;;;;;;;25.67;9.23;;;;;;;-7.36;100.00;99799.66;4315643;33;20387;-71
2021/12/22 06:10:25;;;;;;;34.00;10.70;;;;;;;-7.36;100.00;99797.06;4314615;33;20037;-71
2021/12/22 06:12:51;;;;;;;36.80;10.45;;;;;;;-7.33;100.00;99814.31;4315414;33;20475;-71
2021/12/22 06:15:18;;;;;;;25.58;10.05;;;;;;;-7.31;100.00;99817.66;4315545;33;20114;-71
2021/12/22 06:17:55;;;;;;;37.22;9.15;;;;;;;-7.35;100.00;99822.28;4315468;33;20025;-72
2021/12/22 06:20:23;;;;;;;32.88;10.80;;;;;;;-7.62;100.00;99777.28;4313442;33;20473;-71
2021/12/22 06:22:50;;;;;;;26.40;9.93;;;;;;;-7.63;100.00;99783.44;4315844;33;20049;-71
2021/12/22 06:25:18;;;;;;;38.03;11.90;;;;;;;-7.32;100.00;99824.66;4315198;33;20045;-72
2021/12/22 06:27:44;;;;;;;29.70;11.88;;;;;;;-7.32;100.00;99832.53;4314575;33;20052;-72
2021/12/22 06:30:11;;;;;;;51.25;12.23;;;;;;;-7.25;100.00;99832.06;4315526;33;20070;-70
2021/12/22 06:32:38;;;;;;;32.65;12.13;;;;;;;-7.20;100.00;99835.16;4315822;33;20071;-71
2021/12/22 06:35:05;;;;;;;39.92;13.32;;;;;;;-7.13;100.00;99846.84;4315746;33;20057;-71
2021/12/22 06:37:32;;;;;;;41.95;13.13;;;;;;;-7.19;100.00;99834.22;4315668;33;20040;-71
2021/12/22 06:39:59;;;;;;;40.58;12.98;;;;;;;-7.11;100.00;99844.94;4315349;33;20044;-72
2021/12/22 06:42:25;;;;;;;35.75;11.73;;;;;;;-7.00;100.00;99851.97;4315330;33;20049;-72
2021/12/22 06:44:52;;;;;;;36.70;13.13;;;;;;;-6.96;100.00;99843.75;4315418;33;20041;-71
2021/12/22 06:47:18;;;;;;;31.58;12.00;;;;;;;-7.22;100.00;99811.72;4315667;33;20123;-73
2021/12/22 06:49:51;;;;;;;30.60;12.40;;;;;;;-6.91;100.00;99863.53;4315627;33;20028;-73
2021/12/22 06:52:18;;;;;;;39.17;13.07;;;;;;;-7.10;100.00;99809.13;4315662;33;20052;-71
2021/12/22 06:54:46;;;;;;;37.55;12.90;;;;;;;-6.83;100.00;99846.28;4315496;33;20088;-70
2021/12/22 06:57:16;;;;;;;38.03;13.32;;;;;;;-6.68;100.00;99859.97;4302537;33;20062;-71
2021/12/22 06:59:42;;;;;;;39.22;14.55;;;;;;;-6.73;100.00;99849.03;4314538;33;20062;-71
2021/12/22 07:02:09;;;;;;;33.75;11.95;;;;;;;-6.57;100.00;99870.47;4312969;33;20037;-71
2021/12/22 07:04:35;;;;;;;38.58;13.48;;;;;;;-6.54;100.00;99868.53;4315594;33;20094;-73
2021/12/22 07:07:02;;;;;;;30.02;12.07;;;;;;;-6.52;100.00;99866.66;4314605;33;20052;-71
2021/12/22 07:09:29;;;;;;;44.28;12.88;;;;;;;-6.57;100.00;99869.63;4315564;33;20070;-71
2021/12/22 07:11:55;;;;;;;35.70;11.63;;;;;;;-6.46;100.00;99871.41;4303618;33;20377;-72
2021/12/22 07:14:23;;;;;;;41.58;15.43;;;;;;;-6.84;100.00;99820.22;4318413;33;20070;-72
2021/12/22 07:16:49;;;;;;;37.67;13.23;;;;;;;-6.72;100.00;99834.97;4318415;33;20078;-73
2021/12/22 07:19:16;;;;;;;31.30;11.52;;;;;;;-6.48;100.00;99884.63;4318562;33;20082;-72
2021/12/22 07:21:44;;;;;;;37.42;11.57;;;;;;;-6.55;100.00;99877.38;4318300;33;20041;-72
2021/12/22 07:24:10;;;;;;;36.55;11.65;;;;;;;-6.47;100.00;99880.22;4317314;33;20037;-72
2021/12/22 07:26:38;;;;;;;32.42;11.20;;;;;;;-6.48;100.00;99889.03;4317023;33;20066;-72
2021/12/22 07:29:05;;;;;;;31.58;10.90;;;;;;;-6.62;100.00;99890.09;4317081;33;20366;-72
2021/12/22 07:31:31;;;;;;;38.85;11.88;;;;;;;-6.60;100.00;99886.41;4318164;33;20041;-72
2021/12/22 07:34:14;;;;;;;30.25;10.63;;;;;;;-6.73;100.00;99880.47;4318235;33;20237;-72
2021/12/22 07:36:49;;;;;;;26.87;10.23;;;;;;;-6.55;100.00;99903.59;4318298;33;20055;-71
2021/12/22 07:39:16;;;;;;;23.98;10.18;;;;;;;-6.55;100.00;99891.31;4318049;33;20016;-71
2021/12/22 07:41:42;;;;;;;29.15;10.43;;;;;;;-6.57;100.00;99896.66;4317726;33;20037;-73
2021/12/22 07:44:09;;;;;;;35.75;11.20;;;;;;;-6.51;100.00;99894.50;4316579;33;20045;-72
2021/12/22 07:46:35;;;;;;;30.90;11.02;;;;;;;-6.86;100.00;99840.44;4318249;33;20070;-73
2021/12/22 07:49:02;;;;;;;32.47;9.88;;;;;;;-6.79;100.00;99849.50;4316670;33;20049;-73
2021/12/22 07:51:29;;;;;;;28.58;10.65;;;;;;;-6.79;100.00;99844.25;4317104;33;20058;-72
2021/12/22 07:53:55;;;;;;;32.88;9.38;;;;;;;-6.77;100.00;99844.97;4317084;33;20074;-73
2021/12/22 07:56:22;;;;;;;27.00;8.77;;;;;;;-6.41;100.00;99900.72;4317891;33;20397;-72
2021/12/22 07:58:48;;;;;;;28.92;9.85;;;;;;;-6.51;100.00;99870.94;4315394;33;20084;-73
2021/12/22 08:01:15;;;;;;;30.48;9.98;;;;;;;-6.25;100.00;99906.44;4316631;33;20418;-72
2021/12/22 08:03:42;;;;;;;21.98;9.07;;;;;;;-6.17;100.00;99902.34;4317236;33;20045;-72
2021/12/22 08:06:09;;;;;;;25.02;9.75;;;;;;;-6.09;100.00;99900.81;4317631;33;20037;-72
2021/12/22 08:08:35;;;;;;;24.35;9.00;;;;;;;-5.99;100.00;99905.34;4317726;33;20410;-72
2021/12/22 08:11:02;;;;;;;30.70;9.13;;;;;;;-6.22;100.00;99859.00;4317661;33;20048;-73
2021/12/22 08:13:28;;;;;;;27.95;8.35;;;;;;;-5.91;100.00;99897.66;4303594;33;20068;-72
2021/12/22 08:15:55;;;;;;;24.90;10.60;;;;;;;-5.82;100.00;99896.94;4317401;33;20070;-72
2021/12/22 08:18:23;;;;;;;26.60;8.43;;;;;;;-5.78;100.00;99905.38;4316227;33;20090;-72
2021/12/22 08:20:50;;;;;;;28.80;8.80;;;;;;;-5.84;100.00;99899.66;4317439;33;20066;-72
2021/12/22 08:23:18;;;;;;;26.00;9.85;;;;;;;-5.84;100.00;99899.66;4315349;33;20487;-72
2021/12/22 08:25:48;;;;;;;23.80;9.50;;;;;;;-6.01;100.00;99863.50;4315678;33;20040;-72
2021/12/22 08:28:15;;;;;;;29.63;9.73;;;;;;;-5.73;100.00;99914.53;4304179;33;20164;-72
2021/12/22 08:30:42;;;;;;;28.67;9.98;;;;;;;-5.74;100.00;99909.44;4317363;33;20070;-72
2021/12/22 08:33:15;;;;;;;27.42;9.20;;;;;;;-5.68;100.00;99929.91;4304219;33;20037;-72
2021/12/22 08:41:13;;;;;;;23.87;8.35;;;;;;;-5.68;100.00;99919.41;4317128;33;20051;-73
2021/12/22 08:43:40;;;;;;;20.45;9.07;;;;;;;-5.59;100.00;99921.28;4303823;33;20070;-72
2021/12/22 08:46:06;;;;;;;20.60;8.43;;;;;;;-5.54;100.00;99920.94;4316965;33;20040;-72
2021/12/22 08:48:33;;;;;;;23.25;9.30;;;;;;;-5.48;100.00;99917.81;4316905;33;20063;-72
2021/12/22 08:50:59;;;;;;;29.77;9.68;;;;;;;-5.69;100.00;99870.53;4316825;33;20045;-72
2021/12/22 08:53:26;;;;;;;28.60;9.88;;;;;;;-5.27;100.00;99928.34;4315719;33;20053;-71
2021/12/22 08:55:52;;;;;;;36.85;11.77;;;;;;;-5.33;100.00;99913.09;4315891;33;20052;-71
2021/12/22 08:58:19;;;;;;;41.80;13.57;;;;;;;-5.45;100.00;99887.88;4316609;33;20350;-72
2021/12/22 09:00:46;;;;;;;32.97;11.23;;;;;;;-5.42;100.00;99874.50;4303466;33;20032;-72
2021/12/22 09:03:13;;;;;;;37.22;11.27;;;;;;;-5.13;100.00;99925.41;4316077;33;20045;-72
2021/12/22 09:05:39;;;;;;;23.42;7.93;;;;;;;-5.38;100.00;99875.88;4316929;33;20412;-72
2021/12/22 09:08:06;;;;;;;18.00;7.40;;;;;;;-5.27;100.00;99923.09;4316492;33;20053;-72
2021/12/22 09:10:32;;;;;;;22.45;8.63;;;;;;;-5.22;100.00;99931.41;4315271;33;20041;-72
2021/12/22 09:12:59;;;;;;;30.37;9.20;;;;;;;-5.16;100.00;99930.91;4316749;33;20048;-78
2021/12/22 09:15:25;;;;;;;28.95;8.55;;;;;;;-5.40;100.00;99890.94;4314405;33;20033;-73
2021/12/22 09:17:52;;;;;;;23.05;8.50;;;;;;;-5.34;100.00;99890.44;4302353;33;20044;-73
2021/12/22 09:20:19;;;;;;;26.85;9.20;;;;;;;-5.02;100.00;99932.41;4317658;33;20048;-73
2021/12/22 09:22:46;;;;;;;32.47;9.05;;;;;;;-5.09;100.00;99930.41;4315052;33;20040;-74
2021/12/22 09:25:13;;;;;;;27.45;8.98;;;;;;;-5.21;100.00;99922.59;4315880;33;20362;-73
2021/12/22 09:27:40;;;;;;;30.98;9.60;;;;;;;-5.11;100.00;99917.41;4315592;33;20348;-73
2021/12/22 09:30:08;;;;;;;27.40;9.13;;;;;;;-5.44;100.00;99881.63;4314695;33;20189;-73
2021/12/22 09:32:34;;;;;;;42.15;11.60;;;;;;;-5.45;100.00;99877.38;4315686;33;20063;-74
2021/12/22 09:35:01;;;;;;;31.70;10.18;;;;;;;-5.22;100.00;99931.41;4301886;33;20036;-74
2021/12/22 09:37:27;;;;;;;52.95;15.98;;;;;;;-5.25;100.00;99915.91;4316418;33;20044;-74
2021/12/22 09:39:54;;;;;;;41.90;11.73;;;;;;;-6.12;100.00;99763.91;4314850;33;20071;-74
2021/12/22 09:42:21;;;;;;;46.20;11.82;;;;;;;-5.18;100.00;99921.53;4315647;33;20067;-74
2021/12/22 09:44:48;;;;;;;37.08;12.93;;;;;;;-5.16;100.00;99920.41;4314933;33;20067;-74
2021/12/22 09:47:27;;;;;;;38.85;11.05;;;;;;;-5.09;100.00;99922.53;4303499;33;20066;-74
2021/12/22 09:52:35;;;;;;;25.48;9.77;;;;;;;-5.08;100.00;99906.66;4314875;33;20047;-74
2021/12/22 09:55:04;;;;;;;36.13;10.10;;;;;;;-5.26;100.00;99872.25;4314769;33;20070;-73
2021/12/22 09:57:31;;;;;;;29.33;9.43;;;;;;;-5.18;100.00;99876.88;4316181;33;20160;-73
2021/12/22 09:59:59;;;;;;;24.10;9.75;;;;;;;-4.94;100.00;99908.97;4316816;33;20144;-73
2021/12/22 10:02:29;;;;;;;29.80;9.50;;;;;;;-5.18;100.00;99859.31;4316479;33;20379;-73
2021/12/22 10:04:58;;;;;;;21.12;8.10;;;;;;;-4.85;100.00;99915.25;4316253;33;20452;-73
2021/12/22 10:07:30;;;;;;;33.10;10.23;;;;;;;-4.80;100.00;99913.06;4314647;33;20033;-73
2021/12/22 10:10:05;;;;;;;28.00;9.27;;;;;;;-4.79;100.00;99917.34;4315953;33;20389;-73
2021/12/22 10:12:31;;;;;;;21.25;8.60;;;;;;;-4.97;100.00;99871.63;4315972;33;20062;-72
2021/12/22 10:15:05;;;;;;;28.60;9.88;;;;;;;-4.90;100.00;99898.19;4316148;33;20088;-72
2021/12/22 10:17:33;;;;;;;35.42;8.82;;;;;;;-5.53;100.00;99780.87;4314762;33;20020;-73
2021/12/22 10:20:13;;;;;;;30.70;11.52;;;;;;;-4.68;100.00;99916.44;4313216;33;20481;-73
2021/12/22 10:22:45;;;;;;;22.45;9.40;;;;;;;-4.58;100.00;99919.13;4301384;33;20036;-73
2021/12/22 10:25:17;;;;;;;32.28;9.23;;;;;;;-4.58;100.00;99919.13;4314625;33;20103;-73
2021/12/22 10:27:55;;;;;;;28.00;9.27;;;;;;;-4.50;100.00;99914.06;4315880;33;20021;-73
2021/12/22 10:30:26;;;;;;;26.52;9.32;;;;;;;-4.47;100.00;99919.03;4315669;33;20028;-72
2021/12/22 10:33:09;;;;;;;29.27;9.35;;;;;;;-4.44;100.00;99910.91;4313927;33;20044;-73
2021/12/22 10:35:38;;;;;;;28.02;9.35;;;;;;;-4.64;100.00;99882.84;4315698;33;20047;-73
2021/12/22 10:38:07;;;;;;;26.87;8.77;;;;;;;-4.46;100.00;99907.56;4315578;33;20044;-73
2021/12/22 10:40:35;;;;;;;20.15;7.53;;;;;;;-4.66;100.00;99874.25;4314084;33;20045;-73
2021/12/22 10:43:05;;;;;;;21.10;8.38;;;;;;;-4.46;100.00;99912.00;4314887;33;20074;-73
2021/12/22 10:45:34;;;;;;;21.60;8.55;;;;;;;-4.36;100.00;99920.75;4313440;33;20066;-74
2021/12/22 10:50:58;;;;;;;34.20;9.00;;;;;;;-4.53;100.00;99864.37;4315523;33;20058;-74
2021/12/22 10:53:26;;;;;;;26.35;8.55;;;;;;;-4.25;100.00;99909.31;4313298;33;20148;-74
2021/12/22 10:55:55;;;;;;;32.40;9.10;;;;;;;-4.21;100.00;99900.22;4314358;33;20040;-74
2021/12/22 10:58:27;;;;;;;24.80;9.23;;;;;;;-4.30;100.00;99870.28;4315570;33;20075;-74
2021/12/22 11:01:11;;;;;;;21.25;9.05;;;;;;;-4.12;100.00;99909.09;4314302;33;20383;-73
2021/12/22 11:03:50;;;;;;;18.45;6.35;;;;;;;-4.10;100.00;99902.75;4315828;33;20017;-73
2021/12/22 11:06:28;;;;;;;19.45;6.70;;;;;;;-3.97;100.00;99899.00;4314401;33;20068;-73
2021/12/22 11:09:15;;;;;;;16.60;6.30;;;;;;;-3.83;100.00;99899.47;4314666;33;20016;-73
2021/12/22 11:12:03;;;;;;;18.70;6.12;;;;;;;-3.57;100.00;99903.41;4302420;33;20035;-73
2021/12/22 11:14:33;;;;;;;19.25;6.30;;;;;;;-3.38;100.00;99900.78;4314071;33;20343;-73
2021/12/22 11:16:59;;;;;;;25.50;7.35;;;;;;;-3.42;100.00;99849.34;4314066;33;20435;-73
2021/12/22 11:19:37;;;;;;;22.55;7.18;;;;;;;-2.84;100.00;99898.53;4315216;33;20169;-73
2021/12/22 11:22:13;;;;;;;15.50;7.43;;;;;;;-2.63;100.00;99903.59;4314344;33;20058;-73
2021/12/22 11:24:43;;;;;;;26.05;7.57;;;;;;;-2.98;100.00;99855.00;4302169;33;20061;-73
2021/12/22 11:27:12;;;;;;;20.17;6.43;;;;;;;-2.89;100.00;99892.00;4315537;33;20423;-73
2021/12/22 11:29:42;;;;;;;22.45;6.82;;;;;;;-3.05;100.00;99903.94;4300965;33;20036;-73
2021/12/22 11:32:10;;;;;;;32.95;9.20;;;;;;;-3.34;100.00;99838.94;4313654;33;20064;-72
2021/12/22 11:34:38;;;;;;;15.27;6.18;;;;;;;-2.90;100.00;99887.69;4315214;33;20037;-73
2021/12/22 11:37:07;;;;;;;15.27;6.18;;;;;;;-2.85;100.00;99890.75;4313537;33;20044;-74
2021/12/22 11:39:35;;;;;;;13.68;5.72;;;;;;;-2.75;100.00;99894.19;4315166;33;20332;-72
2021/12/22 11:42:06;;;;;;;14.68;5.70;;;;;;;-2.90;100.00;99853.44;4302222;33;20033;-73
2021/12/22 11:44:34;;;;;;;13.20;5.07;;;;;;;-2.99;100.00;99840.13;4315186;33;20009;-72
2021/12/22 11:47:05;;;;;;;12.30;4.70;;;;;;;-2.89;100.00;99844.56;4315454;33;20041;-73
2021/12/22 11:49:34;;;;;;;11.40;4.65;;;;;;;-2.62;100.00;99876.25;4314163;33;20021;-72
2021/12/22 11:52:23;;;;;;;18.15;5.03;;;;;;;-2.45;100.00;99894.94;4315092;33;20078;-73
2021/12/22 11:55:08;;;;;;;14.82;4.60;;;;;;;-2.72;100.00;99851.72;4313980;33;20076;-72
2021/12/22 11:57:35;;;;;;;13.30;4.68;;;;;;;-2.35;100.00;99885.19;4302397;33;20032;-73
2021/12/22 12:00:33;;;;;;;9.43;4.35;;;;;;;-2.27;100.00;99876.53;4317717;33;20087;-73